Grano, North Dakota
Current Conditions -  °F | °C
As of 3:58 AM on Sunday 21 Dec 2014 (Local Time) from KMIB Reporting Station
Clear Clear  
Wind Chill: 14°   Ceiling: Unl
Heat Index: 20°   Visibility: 10mi
Dew Point: 20°   Wind: 5mph
Humidity: 99%   Direction: 220°SW
Pressure: 29.63"   Gusts: NA
Location:  48.6236°N, 101.367°W
Report Text: KMIB 210958Z AUTO 22004KT 10SM CLR M07/M07 A2963 RMK AO2 SLP063 T10661067 $
Loading
Personal Weather Stations






























Interactive Weather Map New forecast layout! Learn more

10-Day Weather Forecast

Advertisements
Track Severe Weather on mobile